Time;durP1;ratioP1;P1;durP2;ratioP2;P2;SDS_P1;SDS_P2;PMS_P1;PMS_P2;Temp;Humidity;BMP_temperature;BMP_pressure;BME280_temperature;BME280_humidity;BME280_pressure;Samples;Min_cycle;Max_cycle;Signal;HPM_P1;HPM_P2
2021/09/04 00:00:03;;;;;;;6.68;6.37;;;;;;;14.79;88.71;101353.97;4396158;32;20558;-67
2021/09/04 00:02:28;;;;;;;5.43;5.12;;;;;;;14.38;90.03;101286.78;4397946;32;20084;-66
2021/09/04 00:04:54;;;;;;;5.90;5.47;;;;;;;14.71;90.47;101349.16;4397426;32;20073;-67
2021/09/04 00:07:20;;;;;;;5.93;5.62;;;;;;;14.69;90.36;101349.25;4395028;32;20074;-67
2021/09/04 00:09:45;;;;;;;5.50;5.20;;;;;;;14.66;90.58;101349.44;4400560;32;20123;-69
2021/09/04 00:12:11;;;;;;;6.40;6.07;;;;;;;14.68;90.29;101336.97;4397205;32;20993;-67
2021/09/04 00:14:36;;;;;;;6.28;5.78;;;;;;;14.67;89.85;101344.97;4396764;32;20069;-69
2021/09/04 00:17:02;;;;;;;6.25;5.95;;;;;;;14.65;89.93;101342.44;4397335;32;20099;-69
2021/09/04 00:19:27;;;;;;;5.25;5.00;;;;;;;14.62;90.32;101334.69;4396393;32;20193;-69
2021/09/04 00:21:52;;;;;;;5.20;4.93;;;;;;;14.61;90.45;101332.97;4398639;32;20097;-69
2021/09/04 00:24:18;;;;;;;4.93;4.72;;;;;;;14.60;89.96;101330.47;4400028;32;20955;-67
2021/09/04 00:26:43;;;;;;;4.97;4.78;;;;;;;14.60;89.97;101326.00;4399438;32;20080;-68
2021/09/04 00:29:08;;;;;;;5.45;5.15;;;;;;;14.62;90.55;101333.84;4400488;32;20079;-67
2021/09/04 00:31:34;;;;;;;5.28;5.07;;;;;;;14.62;90.67;101321.50;4403890;32;20061;-69
2021/09/04 00:33:59;;;;;;;6.25;5.47;;;;;;;14.33;90.10;101279.12;4400454;32;20603;-67
2021/09/04 00:36:24;;;;;;;5.32;5.12;;;;;;;14.51;90.59;101315.94;4404172;32;20072;-67
2021/09/04 00:38:50;;;;;;;5.47;5.18;;;;;;;14.56;90.02;101332.41;4406417;32;20084;-70
2021/09/04 00:41:21;;;;;;;5.35;5.05;;;;;;;14.54;90.52;101329.81;4406103;32;20598;-67
2021/09/04 00:43:47;;;;;;;4.80;4.60;;;;;;;14.49;89.92;101328.41;4403481;32;20114;-67
2021/09/04 00:46:13;;;;;;;6.97;6.60;;;;;;;14.43;89.83;101329.59;4396534;32;20154;-68
2021/09/04 00:48:38;;;;;;;5.12;4.87;;;;;;;14.40;90.38;101331.59;4394168;32;20101;-68
2021/09/04 00:51:04;;;;;;;7.30;6.90;;;;;;;14.35;90.65;101324.78;4382705;32;20080;-65
2021/09/04 00:53:29;;;;;;;5.07;4.85;;;;;;;14.27;90.55;101313.81;4393241;32;20161;-67
2021/09/04 00:55:55;;;;;;;6.00;5.50;;;;;;;14.29;90.69;101317.22;4382361;32;20258;-67
2021/09/04 00:58:20;;;;;;;4.80;4.60;;;;;;;14.23;91.89;101314.06;4379143;32;20057;-68
2021/09/04 01:00:50;;;;;;;5.25;4.97;;;;;;;14.19;91.86;101315.19;4376923;32;20076;-67
2021/09/04 01:03:15;;;;;;;5.80;5.57;;;;;;;14.13;92.25;101313.75;4380337;32;20076;-68
2021/09/04 01:05:40;;;;;;;5.72;5.43;;;;;;;14.08;92.01;101315.81;4371297;32;20158;-68
2021/09/04 01:08:06;;;;;;;7.72;7.32;;;;;;;14.03;92.47;101313.44;4379021;32;20073;-67
2021/09/04 01:10:31;;;;;;;5.15;4.85;;;;;;;14.00;92.73;101321.50;4387313;32;20511;-68
2021/09/04 01:12:56;;;;;;;4.87;4.68;;;;;;;13.97;92.72;101319.03;4379720;32;20187;-67
2021/09/04 01:15:22;;;;;;;5.20;4.90;;;;;;;13.92;92.84;101313.19;4379466;32;20069;-67
2021/09/04 01:17:47;;;;;;;5.00;4.80;;;;;;;13.87;93.73;101313.44;4378819;32;20077;-68
2021/09/04 01:20:12;;;;;;;6.80;6.50;;;;;;;13.86;93.39;101316.16;4378205;32;20083;-67
2021/09/04 01:22:38;;;;;;;5.18;4.97;;;;;;;13.78;93.39;101308.69;4376431;32;20674;-67
2021/09/04 01:25:07;;;;;;;6.68;6.37;;;;;;;13.79;93.70;101312.16;4382714;32;20069;-67
2021/09/04 01:27:33;;;;;;;5.43;5.10;;;;;;;13.78;93.69;101311.31;4380028;32;20075;-67
2021/09/04 01:29:59;;;;;;;5.95;5.68;;;;;;;13.77;94.08;101309.59;4376609;32;20621;-69
2021/09/04 01:32:24;;;;;;;5.40;5.12;;;;;;;13.72;94.26;101309.88;4383287;32;20081;-67
2021/09/04 01:34:49;;;;;;;5.15;4.90;;;;;;;13.72;93.90;101311.66;4382725;32;20154;-67
2021/09/04 01:37:15;;;;;;;5.00;4.80;;;;;;;12.60;94.78;101128.84;4380103;32;20085;-67
2021/09/04 01:39:40;;;;;;;5.57;5.20;;;;;;;13.66;94.72;101312.00;4382549;32;20465;-67
2021/09/04 01:42:05;;;;;;;4.82;4.60;;;;;;;13.63;94.93;101310.41;4375751;32;20127;-69
2021/09/04 01:44:31;;;;;;;5.00;4.80;;;;;;;13.60;94.72;101305.28;4380409;32;20087;-69
2021/09/04 01:46:56;;;;;;;5.25;5.03;;;;;;;13.58;95.09;101301.87;4383219;32;20479;-67
2021/09/04 01:49:22;;;;;;;6.10;5.80;;;;;;;13.55;95.32;101297.63;4391491;32;20068;-67
2021/09/04 01:51:47;;;;;;;5.70;5.40;;;;;;;13.53;95.37;101303.91;4409095;32;20091;-67
2021/09/04 01:54:12;;;;;;;6.62;6.12;;;;;;;13.46;95.15;101287.56;4394356;32;20674;-67
2021/09/04 01:56:38;;;;;;;5.28;5.00;;;;;;;13.48;95.41;101296.25;4393861;32;21000;-68
2021/09/04 01:59:03;;;;;;;7.82;7.43;;;;;;;13.08;95.57;101232.50;4395604;32;20780;-67
2021/09/04 02:01:28;;;;;;;5.45;5.15;;;;;;;13.43;95.66;101292.16;4404925;32;20080;-67
2021/09/04 02:03:54;;;;;;;5.00;4.70;;;;;;;13.41;95.63;101300.16;4395439;32;20495;-67
2021/09/04 02:06:19;;;;;;;5.53;5.22;;;;;;;13.39;95.52;101307.31;4397797;32;20068;-69
2021/09/04 02:08:45;;;;;;;4.78;4.55;;;;;;;13.38;95.84;101308.22;4395528;32;20091;-67
2021/09/04 02:11:10;;;;;;;4.62;4.43;;;;;;;13.38;95.61;101305.59;4397801;32;20060;-67
2021/09/04 02:13:35;;;;;;;4.85;4.65;;;;;;;13.35;95.74;101329.50;4397060;32;20469;-67
2021/09/04 02:16:01;;;;;;;6.12;5.82;;;;;;;13.35;95.62;101303.16;4391355;32;20476;-67
2021/09/04 02:18:28;;;;;;;4.62;4.43;;;;;;;13.32;95.81;101300.66;4395015;32;20129;-67
2021/09/04 02:20:53;;;;;;;4.80;4.60;;;;;;;13.29;95.69;101301.69;4404806;32;20069;-67
2021/09/04 02:23:18;;;;;;;4.70;4.50;;;;;;;13.30;95.93;101305.16;4398189;32;20088;-67
2021/09/04 02:25:44;;;;;;;5.68;5.37;;;;;;;13.25;95.63;101299.25;4404444;32;20064;-67
2021/09/04 02:28:09;;;;;;;6.53;6.22;;;;;;;13.09;95.55;101273.72;4394433;32;20069;-67
2021/09/04 02:30:34;;;;;;;5.53;5.12;;;;;;;13.17;95.87;101292.62;4411477;32;20088;-67
2021/09/04 02:33:00;;;;;;;6.60;6.30;;;;;;;13.15;95.54;101291.84;4392381;32;20069;-67
2021/09/04 02:35:25;;;;;;;4.68;4.47;;;;;;;13.12;96.16;101291.16;4393705;32;20558;-67
2021/09/04 02:37:51;;;;;;;6.00;5.57;;;;;;;13.11;96.07;101289.44;4394341;32;20073;-67
2021/09/04 02:40:16;;;;;;;6.00;5.70;;;;;;;13.07;96.04;101283.50;4391086;32;20085;-69
2021/09/04 02:42:41;;;;;;;5.10;4.90;;;;;;;13.04;96.31;101281.00;4410722;32;20057;-67
2021/09/04 02:45:07;;;;;;;6.05;5.75;;;;;;;13.03;95.88;101283.72;4394327;32;20079;-67
2021/09/04 02:47:33;;;;;;;5.45;5.15;;;;;;;13.00;96.25;101290.00;4395243;32;20073;-67
2021/09/04 02:49:59;;;;;;;6.15;5.85;;;;;;;13.00;96.29;101283.91;4393376;32;20146;-67
2021/09/04 02:52:24;;;;;;;4.90;4.70;;;;;;;12.96;96.48;101284.06;4396585;32;20072;-68
2021/09/04 02:54:49;;;;;;;5.12;4.82;;;;;;;12.94;96.83;101283.28;4399271;32;20083;-68
2021/09/04 02:57:15;;;;;;;5.47;5.18;;;;;;;12.93;96.82;101288.66;4392811;32;20259;-69
2021/09/04 02:59:40;;;;;;;4.95;4.75;;;;;;;12.89;96.75;101285.31;4390487;32;20096;-67
2021/09/04 03:02:05;;;;;;;6.35;6.05;;;;;;;12.87;96.86;101291.59;4394726;32;20092;-67
2021/09/04 03:04:31;;;;;;;5.22;4.80;;;;;;;12.83;96.86;101292.69;4402500;32;20064;-67
2021/09/04 03:06:56;;;;;;;5.03;4.72;;;;;;;12.77;96.65;101299.97;4396852;32;20091;-67
2021/09/04 03:09:22;;;;;;;5.20;4.90;;;;;;;12.63;97.23;101262.97;4394422;32;20609;-67
2021/09/04 03:11:47;;;;;;;4.80;4.60;;;;;;;12.79;97.11;101289.38;4396013;32;20080;-67
2021/09/04 03:14:12;;;;;;;6.75;6.45;;;;;;;12.76;97.04;101298.25;4401243;32;20618;-67
2021/09/04 03:16:38;;;;;;;5.07;4.87;;;;;;;12.74;96.99;101291.37;4391203;32;20076;-67
2021/09/04 03:19:03;;;;;;;6.05;5.75;;;;;;;12.05;96.95;101179.97;4399552;32;20069;-67
2021/09/04 03:21:28;;;;;;;5.20;4.90;;;;;;;12.69;97.05;101290.75;4394814;32;20567;-67
2021/09/04 03:23:54;;;;;;;5.82;5.45;;;;;;;12.68;97.50;101289.91;4405863;32;20068;-67
2021/09/04 03:26:19;;;;;;;5.40;5.10;;;;;;;12.67;97.40;101290.84;4399989;32;20096;-67
2021/09/04 03:28:45;;;;;;;5.00;4.80;;;;;;;12.65;97.38;101289.22;4409642;32;20065;-67
2021/09/04 03:31:10;;;;;;;6.55;6.25;;;;;;;12.60;97.51;101284.19;4408419;32;20119;-67
2021/09/04 03:33:35;;;;;;;4.82;4.53;;;;;;;12.57;97.79;101285.22;4407096;32;20080;-68
2021/09/04 03:36:01;;;;;;;5.25;4.95;;;;;;;12.54;98.42;101284.50;4400633;32;20888;-67
2021/09/04 03:38:27;;;;;;;4.80;4.60;;;;;;;12.52;98.40;101281.94;4399445;32;20088;-67
2021/09/04 03:40:52;;;;;;;4.68;4.47;;;;;;;12.47;98.10;101272.56;4404038;32;20154;-67
2021/09/04 03:43:17;;;;;;;4.90;4.68;;;;;;;12.48;98.06;101284.81;4396811;32;20082;-67
2021/09/04 03:45:43;;;;;;;5.12;4.82;;;;;;;12.46;98.34;101286.69;4410245;32;20594;-67
2021/09/04 03:48:08;;;;;;;5.85;5.60;;;;;;;12.42;98.37;101293.88;4401192;32;20072;-67
2021/09/04 03:50:34;;;;;;;4.75;4.55;;;;;;;12.39;98.19;101286.16;4414474;32;20075;-67
2021/09/04 03:52:59;;;;;;;5.65;5.35;;;;;;;12.40;98.22;101293.09;4392378;32;20582;-67
2021/09/04 03:55:24;;;;;;;5.22;4.93;;;;;;;12.39;98.20;101299.31;4399019;32;20092;-67
2021/09/04 03:57:50;;;;;;;5.18;4.87;;;;;;;12.34;98.52;101299.50;4392545;32;20146;-67
2021/09/04 04:00:15;;;;;;;5.07;4.87;;;;;;;12.32;98.49;101297.91;4394647;32;20089;-68
2021/09/04 04:02:41;;;;;;;4.80;4.57;;;;;;;12.30;98.49;101292.69;4397323;32;20944;-67
2021/09/04 04:05:06;;;;;;;6.28;5.97;;;;;;;12.28;98.56;101299.81;4405732;32;20129;-67
2021/09/04 04:07:32;;;;;;;4.60;4.40;;;;;;;11.71;98.45;101212.31;4393201;32;20083;-67
2021/09/04 04:09:57;;;;;;;5.07;4.85;;;;;;;12.24;98.51;101300.91;4410930;32;20543;-67
2021/09/04 04:12:22;;;;;;;5.53;5.12;;;;;;;12.16;98.43;101295.16;4389919;32;20084;-67
2021/09/04 04:14:48;;;;;;;5.15;4.87;;;;;;;12.20;98.40;101304.63;4405003;32;20198;-67
2021/09/04 04:17:13;;;;;;;6.47;6.18;;;;;;;11.41;98.33;101181.31;4396372;32;20125;-67
2021/09/04 04:19:38;;;;;;;4.97;4.60;;;;;;;12.17;98.68;101305.63;4413871;32;20156;-67
2021/09/04 04:22:04;;;;;;;6.97;6.30;;;;;;;12.16;98.73;101308.31;4393765;32;20077;-67
2021/09/04 04:24:29;;;;;;;4.90;4.60;;;;;;;12.14;98.68;101300.50;4408428;32;20072;-67
2021/09/04 04:26:55;;;;;;;4.82;4.62;;;;;;;12.13;98.34;101311.13;4404095;32;20079;-67
2021/09/04 04:29:20;;;;;;;4.68;4.47;;;;;;;12.11;98.24;101303.31;4405322;32;20082;-67
2021/09/04 04:31:45;;;;;;;4.90;4.70;;;;;;;11.92;98.40;101277.03;4400934;32;20080;-67
2021/09/04 04:34:11;;;;;;;6.75;6.45;;;;;;;11.65;98.26;101233.66;4391923;32;20981;-67
2021/09/04 04:36:36;;;;;;;4.70;4.50;;;;;;;12.05;98.56;101300.12;4399024;32;20208;-67
2021/09/04 04:39:01;;;;;;;6.12;5.82;;;;;;;12.02;98.84;101295.00;4400487;32;20933;-67
2021/09/04 04:41:27;;;;;;;4.85;4.65;;;;;;;11.95;98.65;101294.47;4393637;32;20361;-67
2021/09/04 04:43:52;;;;;;;4.97;4.78;;;;;;;12.03;98.79;101302.81;4398489;32;20088;-67
2021/09/04 04:46:18;;;;;;;5.30;5.10;;;;;;;12.02;99.03;101303.75;4395802;32;20500;-67
2021/09/04 04:48:43;;;;;;;5.18;4.87;;;;;;;12.03;98.62;101308.09;4401007;32;20080;-67
2021/09/04 04:51:08;;;;;;;6.05;5.75;;;;;;;12.03;98.95;101307.22;4398394;32;20122;-67
2021/09/04 04:53:34;;;;;;;5.65;5.35;;;;;;;12.04;98.83;101306.31;4390138;32;20084;-67
2021/09/04 04:56:02;;;;;;;6.65;6.35;;;;;;;12.05;98.69;101310.66;4394161;32;20077;-67
2021/09/04 04:58:28;;;;;;;4.70;4.50;;;;;;;12.03;98.71;101309.84;4397714;32;20107;-68
2021/09/04 05:00:54;;;;;;;5.10;4.90;;;;;;;12.02;98.61;101301.09;4393296;32;20076;-69
2021/09/04 05:03:19;;;;;;;5.37;5.18;;;;;;;12.04;98.57;101312.41;4410677;32;20927;-71
2021/09/04 05:05:44;;;;;;;5.60;5.30;;;;;;;12.06;98.54;101314.97;4394203;32;20092;-68
2021/09/04 05:08:10;;;;;;;6.57;6.25;;;;;;;12.08;98.67;101313.97;4396780;32;20065;-68
2021/09/04 05:10:35;;;;;;;5.28;4.87;;;;;;;12.13;98.52;101308.50;4396929;32;20088;-68
2021/09/04 05:13:01;;;;;;;6.12;5.82;;;;;;;12.17;98.62;101318.78;4407505;32;20845;-66
2021/09/04 05:15:26;;;;;;;4.93;4.72;;;;;;;12.23;98.70;101317.63;4398600;32;20566;-70
2021/09/04 05:17:51;;;;;;;4.50;4.30;;;;;;;11.98;98.56;101267.97;4396482;32;20085;-68
2021/09/04 05:20:17;;;;;;;4.87;4.68;;;;;;;12.23;98.75;101303.59;4397074;32;20084;-69
2021/09/04 05:22:45;;;;;;;4.97;4.75;;;;;;;12.40;98.49;101329.09;4403070;32;20073;-68
2021/09/04 05:25:10;;;;;;;4.93;4.72;;;;;;;12.48;98.47;101332.22;4399645;32;20191;-68
2021/09/04 05:27:36;;;;;;;5.05;4.85;;;;;;;12.57;98.63;101335.22;4400038;32;20083;-68
2021/09/04 05:30:01;;;;;;;5.78;5.53;;;;;;;12.63;98.36;101336.72;4406777;32;20065;-68
2021/09/04 05:32:26;;;;;;;4.50;4.30;;;;;;;12.69;98.39;101339.03;4397836;32;20599;-69
2021/09/04 05:34:52;;;;;;;5.00;4.80;;;;;;;12.74;98.29;101331.72;4410716;32;20100;-69
2021/09/04 05:37:18;;;;;;;5.03;4.82;;;;;;;12.87;98.24;101331.97;4393253;32;20081;-69
2021/09/04 05:39:43;;;;;;;4.95;4.75;;;;;;;12.96;97.92;101339.38;4410616;32;20073;-69
2021/09/04 05:42:08;;;;;;;6.03;5.72;;;;;;;13.07;97.32;101336.22;4391522;32;20053;-71
2021/09/04 05:44:34;;;;;;;5.40;5.20;;;;;;;13.21;97.64;101339.88;4395610;32;20575;-69
2021/09/04 05:46:59;;;;;;;5.87;5.60;;;;;;;13.33;97.12;101341.87;4397121;32;20065;-70
2021/09/04 05:49:24;;;;;;;5.07;4.85;;;;;;;13.42;97.03;101336.13;4394193;32;20141;-69
2021/09/04 05:51:50;;;;;;;5.50;5.22;;;;;;;13.53;96.84;101336.41;4395127;32;20080;-69
2021/09/04 05:54:15;;;;;;;5.62;5.35;;;;;;;13.60;96.32;101338.72;4399134;32;20478;-69
2021/09/04 05:56:40;;;;;;;6.00;5.70;;;;;;;13.65;95.65;101345.44;4398035;32;20150;-69
2021/09/04 05:59:06;;;;;;;6.80;6.50;;;;;;;13.69;95.45;101351.38;4396857;32;20080;-69
2021/09/04 06:01:31;;;;;;;5.80;5.50;;;;;;;13.76;94.67;101350.97;4393109;32;20068;-69
2021/09/04 06:03:56;;;;;;;5.47;5.18;;;;;;;13.84;94.64;101350.53;4396024;32;20207;-69
2021/09/04 06:06:22;;;;;;;5.55;5.28;;;;;;;13.85;94.96;101354.03;4390239;32;20093;-68
2021/09/04 06:08:47;;;;;;;5.68;5.37;;;;;;;13.89;94.67;101348.53;4396094;32;20097;-68
2021/09/04 06:11:13;;;;;;;7.47;6.87;;;;;;;13.95;94.37;101345.53;4390935;32;20786;-69
2021/09/04 06:13:38;;;;;;;5.85;5.55;;;;;;;14.14;94.64;101347.12;4397897;32;20492;-69
2021/09/04 06:16:03;;;;;;;5.35;5.15;;;;;;;14.20;94.81;101348.56;4394435;32;20069;-71
2021/09/04 06:18:29;;;;;;;4.93;4.62;;;;;;;14.28;94.06;101351.63;4405889;32;20082;-68
2021/09/04 06:20:54;;;;;;;5.00;4.80;;;;;;;14.35;93.33;101348.56;4400476;32;20064;-70
2021/09/04 06:23:19;;;;;;;5.40;5.10;;;;;;;14.38;93.54;101350.16;4403211;32;21011;-69
2021/09/04 06:25:45;;;;;;;5.55;5.25;;;;;;;14.52;93.13;101357.28;4398883;32;20831;-69
2021/09/04 06:28:10;;;;;;;7.50;7.10;;;;;;;14.57;93.00;101349.94;4398384;32;20084;-71
2021/09/04 06:30:35;;;;;;;6.30;5.70;;;;;;;14.70;92.41;101353.59;4403014;32;20075;-71
2021/09/04 06:33:01;;;;;;;5.62;5.32;;;;;;;14.75;92.22;101362.09;4399500;32;20061;-68
2021/09/04 06:35:26;;;;;;;5.60;5.30;;;;;;;14.87;92.14;101357.84;4392368;32;20142;-68
2021/09/04 06:37:52;;;;;;;5.95;5.40;;;;;;;14.83;91.18;101356.34;4397451;32;20073;-68
2021/09/04 06:40:17;;;;;;;5.75;5.18;;;;;;;14.92;91.63;101369.00;4395731;32;21256;-68
2021/09/04 06:42:42;;;;;;;5.80;5.40;;;;;;;15.00;91.15;101359.78;4394500;32;20079;-68
2021/09/04 06:45:08;;;;;;;7.35;6.95;;;;;;;14.99;90.93;101340.41;4392674;32;20103;-68
2021/09/04 06:47:33;;;;;;;6.65;5.93;;;;;;;15.33;89.77;101360.38;4408976;32;20138;-69
2021/09/04 06:49:59;;;;;;;14.80;6.35;;;;;;;15.26;88.96;101360.84;4403289;32;20072;-68
2021/09/04 06:52:24;;;;;;;5.90;5.50;;;;;;;15.42;89.21;101366.03;4414322;32;20139;-68
2021/09/04 06:54:49;;;;;;;10.63;5.55;;;;;;;15.12;88.61;101312.31;4416077;32;20677;-69
2021/09/04 06:57:15;;;;;;;7.18;6.75;;;;;;;15.56;87.77;101363.38;4399207;32;20060;-73
2021/09/04 06:59:40;;;;;;;5.57;5.28;;;;;;;15.31;87.41;101337.59;4392846;32;20641;-74
2021/09/04 07:02:05;;;;;;;8.65;8.15;;;;;;;15.57;88.36;101354.50;4392310;32;20069;-75
2021/09/04 07:04:31;;;;;;;5.75;5.45;;;;;;;15.53;88.13;101355.63;4407758;32;20077;-74
2021/09/04 07:07:01;;;;;;;5.80;5.50;;;;;;;15.40;88.31;101333.56;4407053;32;20080;-75
2021/09/04 07:09:27;;;;;;;5.62;5.32;;;;;;;15.52;87.99;101383.03;4391146;32;20073;-73
2021/09/04 07:11:52;;;;;;;6.55;6.05;;;;;;;15.39;87.62;101358.28;4404688;32;21013;-75
2021/09/04 07:14:17;;;;;;;6.07;5.57;;;;;;;14.90;88.60;101261.69;4408214;32;20065;-73
2021/09/04 07:16:43;;;;;;;5.30;5.10;;;;;;;15.72;87.59;101360.62;4389937;32;20069;-73
2021/09/04 07:19:08;;;;;;;5.78;5.45;;;;;;;15.83;87.42;101357.31;4394787;32;20072;-73
2021/09/04 07:21:33;;;;;;;6.15;5.85;;;;;;;15.92;85.96;101349.66;4407503;32;20092;-73
2021/09/04 07:23:59;;;;;;;6.97;5.78;;;;;;;16.12;85.83;101371.34;4396516;32;20072;-71
2021/09/04 07:26:24;;;;;;;6.07;5.68;;;;;;;15.97;84.62;101364.38;4409664;32;20091;-73
2021/09/04 07:28:50;;;;;;;7.07;6.43;;;;;;;15.95;85.84;101370.59;4397275;32;20073;-73
2021/09/04 07:31:15;;;;;;;7.47;6.70;;;;;;;16.04;85.71;101371.00;4414465;32;20783;-73
2021/09/04 07:33:40;;;;;;;6.50;6.10;;;;;;;16.08;85.91;101364.56;4413420;32;20150;-75
2021/09/04 07:36:08;;;;;;;6.43;5.93;;;;;;;16.20;85.62;101376.16;4402016;32;20077;-74
2021/09/04 07:38:34;;;;;;;5.87;5.43;;;;;;;16.45;83.79;101375.38;4391049;32;20190;-73
2021/09/04 07:41:00;;;;;;;6.05;5.72;;;;;;;16.54;84.03;101391.53;4389983;32;20630;-73
2021/09/04 07:43:25;;;;;;;6.75;6.18;;;;;;;16.48;84.55;101376.03;4393396;32;20069;-74
2021/09/04 07:45:50;;;;;;;6.78;6.35;;;;;;;14.62;83.72;101052.06;4404701;32;20095;-75
2021/09/04 07:48:16;;;;;;;7.03;6.60;;;;;;;16.71;82.73;101374.47;4384830;32;20645;-76
2021/09/04 07:50:41;;;;;;;6.30;5.90;;;;;;;16.65;82.21;101380.19;4390575;32;20091;-74
2021/09/04 07:53:06;;;;;;;6.20;5.82;;;;;;;16.66;82.40;101379.25;4393615;32;20084;-75
2021/09/04 07:55:32;;;;;;;6.40;6.03;;;;;;;16.74;81.63;101376.09;4386359;32;20671;-75
2021/09/04 07:57:57;;;;;;;6.60;6.22;;;;;;;16.88;81.33;101377.84;4396587;32;20085;-72
2021/09/04 08:00:22;;;;;;;7.12;6.62;;;;;;;16.69;81.11;101373.72;4401485;32;20584;-73
2021/09/04 08:02:48;;;;;;;6.90;6.28;;;;;;;16.83;82.22;101379.94;4395092;32;20077;-74
2021/09/04 08:05:13;;;;;;;7.57;7.18;;;;;;;16.98;82.44;101378.91;4400466;32;20897;-73
2021/09/04 08:07:39;;;;;;;6.35;6.03;;;;;;;17.07;82.61;101378.25;4407308;32;20080;-73
2021/09/04 08:10:04;;;;;;;8.07;7.53;;;;;;;17.04;79.54;101383.78;4397506;32;20088;-74
2021/09/04 08:12:30;;;;;;;5.80;5.47;;;;;;;17.23;80.31;101380.72;4418659;32;20072;-77
2021/09/04 08:14:55;;;;;;;6.70;6.15;;;;;;;17.28;78.22;101365.34;4415111;32;20088;-70
2021/09/04 08:17:21;;;;;;;6.43;5.93;;;;;;;17.24;78.91;101379.78;4403251;32;20113;-78
2021/09/04 08:19:46;;;;;;;5.75;5.45;;;;;;;17.42;79.58;101392.69;4419136;32;20087;-73
2021/09/04 08:22:12;;;;;;;7.53;6.93;;;;;;;17.40;78.52;101368.06;4413345;32;20084;-73
2021/09/04 08:24:38;;;;;;;6.97;6.57;;;;;;;17.69;78.22;101389.91;4396509;32;20577;-71
2021/09/04 08:27:03;;;;;;;7.95;7.45;;;;;;;17.94;77.43;101395.19;4396576;32;20698;-71
2021/09/04 08:29:28;;;;;;;5.95;5.65;;;;;;;17.86;76.53;101373.66;4410716;32;20065;-76
2021/09/04 08:31:54;;;;;;;7.30;6.80;;;;;;;17.34;76.76;101264.09;4387803;32;20061;-75
2021/09/04 08:34:19;;;;;;;7.82;7.12;;;;;;;18.14;75.72;101395.53;4397052;32;20068;-72
2021/09/04 08:36:45;;;;;;;6.00;5.53;;;;;;;18.06;74.84;101385.50;4410045;32;20123;-71
2021/09/04 08:39:10;;;;;;;7.57;7.18;;;;;;;18.05;76.05;101389.09;4396335;32;20137;-71
2021/09/04 08:41:36;;;;;;;6.62;6.18;;;;;;;17.38;74.07;101247.94;4396406;32;20069;-72
2021/09/04 08:44:01;;;;;;;9.65;8.82;;;;;;;18.22;75.04;101387.00;4412007;32;20057;-71
2021/09/04 08:46:34;;;;;;;6.97;6.45;;;;;;;18.11;75.14;101380.66;4407630;32;20072;-72
2021/09/04 08:49:00;;;;;;;6.80;6.40;;;;;;;18.07;74.97;101386.31;4407867;32;20099;-71
2021/09/04 08:51:25;;;;;;;7.37;6.80;;;;;;;18.31;76.61;101386.34;4403403;32;20100;-71
2021/09/04 08:53:51;;;;;;;6.75;6.25;;;;;;;18.32;75.12;101382.69;4412979;32;20068;-74
2021/09/04 08:56:16;;;;;;;8.23;7.72;;;;;;;18.24;74.42;101374.44;4399705;32;20061;-71
2021/09/04 08:58:42;;;;;;;5.65;5.35;;;;;;;18.55;74.57;101383.66;4425248;32;20076;-74
2021/09/04 09:01:15;;;;;;;8.68;8.05;;;;;;;18.48;72.84;101385.06;4398895;32;20574;-73
2021/09/04 09:03:40;;;;;;;8.82;6.97;;;;;;;18.63;71.77;101386.59;4407936;32;20582;-73
2021/09/04 09:06:05;;;;;;;7.93;7.32;;;;;;;18.85;71.87;101390.31;4398703;32;20138;-73
2021/09/04 09:08:31;;;;;;;7.00;6.40;;;;;;;18.92;71.78;101391.53;4413341;32;20064;-72
2021/09/04 09:10:59;;;;;;;7.05;6.50;;;;;;;18.06;72.51;101265.97;4407870;32;22295;-72
2021/09/04 09:13:25;;;;;;;6.43;5.85;;;;;;;19.04;72.85;101376.44;4419441;32;20084;-72
2021/09/04 09:15:54;;;;;;;6.93;6.35;;;;;;;19.26;71.93;101379.16;4403574;32;20747;-71
2021/09/04 09:18:19;;;;;;;6.07;5.78;;;;;;;18.86;70.82;101376.03;4410504;32;20069;-72
2021/09/04 09:21:00;;;;;;;6.57;5.97;;;;;;;19.12;71.99;101397.97;4405807;32;20060;-72
2021/09/04 09:23:26;;;;;;;6.18;5.78;;;;;;;19.24;70.67;101381.06;4415307;32;20460;-74
2021/09/04 09:25:54;;;;;;;7.43;6.82;;;;;;;19.32;70.33;101383.13;4398329;32;20095;-71
2021/09/04 09:28:21;;;;;;;6.32;5.93;;;;;;;19.15;69.98;101378.28;4394567;32;20282;-71
2021/09/04 09:30:51;;;;;;;5.95;5.55;;;;;;;19.39;69.11;101379.03;4408668;32;20175;-71
2021/09/04 09:33:18;;;;;;;8.07;6.62;;;;;;;19.20;70.12;101382.25;4400068;32;20409;-72
2021/09/04 09:35:45;;;;;;;7.20;6.50;;;;;;;19.48;69.43;101373.00;4405531;32;20076;-76
2021/09/04 09:38:12;;;;;;;7.80;7.30;;;;;;;19.22;69.27;101320.94;4400773;32;20198;-73
2021/09/04 09:40:38;;;;;;;6.65;5.97;;;;;;;19.61;69.27;101380.00;4412616;32;20077;-72
2021/09/04 09:43:12;;;;;;;8.13;7.62;;;;;;;19.44;67.89;101374.16;4439764;26;20793;-67
2021/09/04 09:45:54;;;;;;;7.25;6.65;;;;;;;19.55;69.32;101383.16;4403913;32;20586;-67
2021/09/04 09:48:22;;;;;;;6.87;6.15;;;;;;;19.71;68.71;101379.16;4408171;32;20069;-69
2021/09/04 09:50:47;;;;;;;6.45;6.05;;;;;;;19.96;69.09;101381.66;4411861;32;20076;-67
2021/09/04 09:53:12;;;;;;;7.70;7.18;;;;;;;20.13;67.83;101379.31;4407323;32;20065;-66
2021/09/04 09:55:41;;;;;;;7.07;6.57;;;;;;;20.16;67.97;101372.87;4393191;32;20104;-67
2021/09/04 09:58:06;;;;;;;7.53;6.93;;;;;;;19.98;69.00;101367.25;4388325;32;20080;-66
2021/09/04 10:00:32;;;;;;;7.45;6.60;;;;;;;20.01;67.98;101332.37;4389462;32;20087;-65
2021/09/04 10:03:01;;;;;;;7.80;6.75;;;;;;;19.69;67.82;101375.75;4410296;32;20088;-67
2021/09/04 10:05:28;;;;;;;7.37;6.90;;;;;;;19.97;68.66;101372.72;4409138;32;20890;-65
2021/09/04 10:07:57;;;;;;;9.63;7.25;;;;;;;20.09;66.64;101367.22;4394349;32;20057;-66
2021/09/04 10:10:25;;;;;;;7.55;7.10;;;;;;;20.24;66.23;101362.44;4400927;32;20083;-65
2021/09/04 10:12:50;;;;;;;6.85;6.32;;;;;;;20.28;67.46;101361.22;4391552;32;20073;-66
2021/09/04 10:15:16;;;;;;;8.43;7.60;;;;;;;20.40;65.27;101362.00;4381080;32;20097;-67
2021/09/04 10:17:41;;;;;;;6.87;6.30;;;;;;;20.15;66.80;101360.53;4418872;32;20072;-66
2021/09/04 10:20:07;;;;;;;7.60;7.20;;;;;;;20.37;66.48;101351.63;4394235;32;20481;-65
2021/09/04 10:22:33;;;;;;;6.95;6.45;;;;;;;20.70;65.93;101357.78;4406704;32;20095;-66
2021/09/04 10:25:02;;;;;;;7.03;6.53;;;;;;;20.71;64.83;101355.00;4399284;32;20084;-64
2021/09/04 10:27:40;;;;;;;7.53;6.87;;;;;;;21.25;64.65;101360.22;4413849;32;20083;-64
2021/09/04 10:30:25;;;;;;;7.72;7.22;;;;;;;21.02;64.46;101363.03;4393453;32;20165;-65
2021/09/04 10:32:58;;;;;;;6.72;6.22;;;;;;;21.29;63.19;101356.31;4375450;32;20594;-64
2021/09/04 10:35:54;;;;;;;6.80;6.30;;;;;;;21.40;62.31;101358.87;4410868;32;20435;-64
2021/09/04 10:38:19;;;;;;;8.77;7.05;;;;;;;20.99;63.53;101352.66;4421024;32;20198;-64
2021/09/04 10:40:51;;;;;;;7.90;7.37;;;;;;;21.15;63.15;101349.50;4434927;32;20052;-64
2021/09/04 10:43:17;;;;;;;;;;;;;;;20.94;64.11;101351.34;4426138;32;20239;-64
2021/09/04 10:45:44;;;;;;;9.48;7.75;;;;;;;20.99;64.20;101343.78;4439279;32;20752;-64
2021/09/04 10:48:19;;;;;;;7.80;7.30;;;;;;;21.05;63.56;101343.28;4404194;32;20072;-64
2021/09/04 10:51:00;;;;;;;6.32;5.93;;;;;;;21.29;62.02;101334.94;4403635;32;20080;-64
2021/09/04 10:53:52;;;;;;;7.93;6.18;;;;;;;21.49;62.29;101335.91;4433710;32;20399;-64
2021/09/04 10:56:22;;;;;;;7.65;7.07;;;;;;;21.82;61.64;101336.53;4427713;32;20075;-64
2021/09/04 10:58:48;;;;;;;7.22;6.72;;;;;;;21.69;61.70;101328.78;4402731;32;20660;-66
2021/09/04 11:01:37;;;;;;;6.57;6.15;;;;;;;21.76;61.80;101335.25;4425095;32;20078;-63
2021/09/04 11:04:02;;;;;;;6.97;6.47;;;;;;;21.42;63.42;101343.56;4435385;32;20099;-63
2021/09/04 11:06:27;;;;;;;6.93;6.50;;;;;;;21.67;62.19;101333.41;4415306;32;20680;-65
2021/09/04 11:08:54;;;;;;;7.90;7.15;;;;;;;21.87;61.06;101332.47;4415742;32;20141;-63
2021/09/04 11:11:35;;;;;;;7.28;6.68;;;;;;;21.33;61.82;101325.69;4413561;32;20061;-65
2021/09/04 11:14:17;;;;;;;7.70;7.10;;;;;;;21.19;63.25;101328.69;4417992;32;20091;-70
2021/09/04 11:16:47;;;;;;;8.13;7.07;;;;;;;21.53;62.39;101313.28;4413178;32;20873;-68
2021/09/04 11:19:17;;;;;;;7.68;6.90;;;;;;;21.68;61.35;101324.41;4414085;32;20589;-67